Charleyville, Australia
Current Conditions -  °F | °C
As of 4:00 AM on Friday 31 Oct 2014 (Local Time) from YBCV Reporting Station
Clear Clear  
Wind Chill: 81°   Ceiling: Unl
Heat Index: 81°   Visibility: 6mi
Dew Point: 52°   Wind: 16mph
Humidity: 37%   Direction: 20°NNE
Pressure: 29.83"   Gusts: NA
Location:  26.42°S, 146.28°E
Report Text: YBCV 301800Z AUTO 02014KT 9999 // NCD 27/11 Q1010
Loading
Personal Weather Stations






























Interactive Weather Map
Tropical Storm Tracking
New forecast layout! Learn more

10-Day Weather Forecast

Advertisements
Track Severe Weather on mobile